createdAt,value
2023-04-11T00:00:02.001Z,8.96
2023-04-11T00:02:30.742Z,8.96
2023-04-11T00:04:58.895Z,8.91
2023-04-11T00:07:25.652Z,8.91
2023-04-11T00:09:52.328Z,8.89
2023-04-11T00:12:18.932Z,8.87
2023-04-11T00:14:48.945Z,8.85
2023-04-11T00:17:17.691Z,8.84
2023-04-11T00:19:46.211Z,8.81
2023-04-11T00:22:13.879Z,8.82
2023-04-11T00:24:40.625Z,8.81
2023-04-11T00:27:07.355Z,8.81
2023-04-11T00:29:34.234Z,8.78
2023-04-11T00:32:01.161Z,8.78
2023-04-11T00:34:28.362Z,8.80
2023-04-11T00:36:55.112Z,8.78
2023-04-11T00:39:22.878Z,8.79
2023-04-11T00:41:49.388Z,8.81
2023-04-11T00:44:16.128Z,8.83
2023-04-11T00:46:45.993Z,8.82
2023-04-11T00:49:13.541Z,8.79
2023-04-11T00:51:40.286Z,8.81
2023-04-11T00:54:10.531Z,8.79
2023-04-11T00:56:37.248Z,8.75
2023-04-11T00:59:03.833Z,8.78
2023-04-11T01:01:30.451Z,8.77
2023-04-11T01:03:57.368Z,8.80
2023-04-11T01:06:24.241Z,8.81
2023-04-11T01:08:51.015Z,8.84
2023-04-11T01:11:20.340Z,8.85
2023-04-11T01:13:47.154Z,8.86
2023-04-11T01:16:15.122Z,8.87
2023-04-11T01:18:41.962Z,8.84
2023-04-11T01:21:09.630Z,8.83
2023-04-11T01:23:36.084Z,8.82
2023-04-11T01:26:02.662Z,8.82
2023-04-11T01:28:29.208Z,8.82
2023-04-11T01:30:55.852Z,8.84
2023-04-11T01:33:22.578Z,8.84
2023-04-11T01:35:49.472Z,8.83
2023-04-11T01:38:16.359Z,8.81
2023-04-11T01:40:45.073Z,8.82
2023-04-11T01:43:12.427Z,8.82
2023-04-11T01:45:40.076Z,8.85
2023-04-11T01:48:08.624Z,8.88
2023-04-11T01:50:35.920Z,8.89
2023-04-11T01:53:02.568Z,8.87
2023-04-11T01:55:29.161Z,8.87
2023-04-11T01:57:55.961Z,8.87
2023-04-11T02:00:22.498Z,8.87
2023-04-11T02:02:49.118Z,8.88
2023-04-11T02:05:15.893Z,8.88
2023-04-11T02:07:42.494Z,8.90
2023-04-11T02:10:09.832Z,8.90
2023-04-11T02:12:36.407Z,8.91
2023-04-11T02:15:03.154Z,8.93
2023-04-11T02:17:31.359Z,8.93
2023-04-11T02:19:58.078Z,8.93
2023-04-11T02:22:25.073Z,8.93
2023-04-11T02:24:51.640Z,8.95
2023-04-11T02:27:18.382Z,8.96
2023-04-11T02:29:44.846Z,8.96
2023-04-11T02:32:11.576Z,8.95
2023-04-11T02:34:38.148Z,8.97
2023-04-11T02:37:04.811Z,8.98
2023-04-11T02:39:31.669Z,8.99
2023-04-11T02:41:58.248Z,8.98
2023-04-11T02:44:26.477Z,8.99
2023-04-11T02:46:52.988Z,8.99
2023-04-11T02:49:20.091Z,8.99
2023-04-11T02:51:47.240Z,8.98
2023-04-11T02:54:14.002Z,8.98
2023-04-11T02:56:40.529Z,8.94
2023-04-11T02:59:07.456Z,8.91
2023-04-11T03:01:34.235Z,8.89
2023-04-11T03:04:01.053Z,8.88
2023-04-11T03:06:28.187Z,8.84
2023-04-11T03:08:55.355Z,8.80
2023-04-11T03:11:25.738Z,8.78
2023-04-11T03:13:52.540Z,8.75
2023-04-11T03:16:20.012Z,8.75
2023-04-11T03:18:46.859Z,8.73
2023-04-11T03:21:13.560Z,8.73
2023-04-11T03:23:40.478Z,8.73
2023-04-11T03:26:07.671Z,8.71
2023-04-11T03:28:34.621Z,8.73
2023-04-11T03:31:01.296Z,8.73
2023-04-11T03:33:27.999Z,8.74
2023-04-11T03:35:54.757Z,8.70
2023-04-11T03:38:21.619Z,8.70
2023-04-11T03:40:48.489Z,8.68
2023-04-11T03:43:16.803Z,8.67
2023-04-11T03:45:43.938Z,8.64
2023-04-11T03:48:10.629Z,8.65
2023-04-11T03:50:37.543Z,8.64
2023-04-11T03:53:04.596Z,8.63
2023-04-11T03:55:31.421Z,8.62
2023-04-11T03:57:57.884Z,8.61
2023-04-11T04:00:24.465Z,8.59
2023-04-11T04:02:51.322Z,8.56
2023-04-11T04:05:18.165Z,8.55
2023-04-11T04:07:44.750Z,8.53
2023-04-11T04:10:11.256Z,8.53
2023-04-11T04:12:37.866Z,8.49
2023-04-11T04:15:04.842Z,8.48
2023-04-11T04:17:31.488Z,8.47
2023-04-11T04:19:58.174Z,8.47
2023-04-11T04:22:26.744Z,8.46
2023-04-11T04:24:53.270Z,8.44
2023-04-11T04:27:19.853Z,8.43
2023-04-11T04:29:47.369Z,8.42
2023-04-11T04:32:23.212Z,8.41
2023-04-11T04:34:55.125Z,8.38
2023-04-11T04:37:24.474Z,8.37
2023-04-11T04:39:55.406Z,8.36
2023-04-11T04:42:25.942Z,8.32
2023-04-11T04:44:53.951Z,8.28
2023-04-11T04:47:23.885Z,8.27
2023-04-11T04:49:55.674Z,8.24
2023-04-11T04:52:26.434Z,8.20
2023-04-11T04:54:54.031Z,8.18
2023-04-11T04:57:21.161Z,8.13
2023-04-11T04:59:47.795Z,8.11
2023-04-11T05:02:14.427Z,8.08
2023-04-11T05:04:42.064Z,8.04
2023-04-11T05:07:08.656Z,8.01
2023-04-11T05:09:35.254Z,7.96
2023-04-11T05:12:02.021Z,7.96
2023-04-11T05:14:28.653Z,7.94
2023-04-11T05:16:55.246Z,7.92
2023-04-11T05:19:21.932Z,7.91
2023-04-11T05:21:48.686Z,7.87
2023-04-11T05:24:15.436Z,7.87
2023-04-11T05:26:42.190Z,7.86
2023-04-11T05:29:08.943Z,7.86
2023-04-11T05:31:35.795Z,7.83
2023-04-11T05:34:02.570Z,7.83
2023-04-11T05:36:29.444Z,7.82
2023-04-11T05:38:56.063Z,7.80
2023-04-11T05:41:22.755Z,7.81
2023-04-11T05:43:49.336Z,7.81
2023-04-11T05:46:16.029Z,7.80
2023-04-11T05:48:45.096Z,7.82
2023-04-11T05:51:11.752Z,7.83
2023-04-11T05:53:38.462Z,7.88
2023-04-11T05:56:05.507Z,7.98
2023-04-11T05:58:32.228Z,8.05
2023-04-11T06:00:59.970Z,8.16
2023-04-11T06:03:27.342Z,8.25
2023-04-11T06:05:54.399Z,8.33
2023-04-11T06:08:21.622Z,8.43
2023-04-11T06:10:48.312Z,8.52
2023-04-11T06:13:15.082Z,8.61
2023-04-11T06:15:41.849Z,8.69
2023-04-11T06:18:08.602Z,8.78
2023-04-11T06:23:29.482Z,8.96
2023-04-11T06:25:56.146Z,9.04
2023-04-11T06:28:22.848Z,9.10
2023-04-11T06:30:49.766Z,9.16
2023-04-11T06:33:16.338Z,9.19
2023-04-11T06:38:38.130Z,9.42
2023-04-11T06:41:04.989Z,9.51
2023-04-11T06:43:32.366Z,9.66
2023-04-11T06:45:59.179Z,9.74
2023-04-11T06:48:26.173Z,9.88
2023-04-11T06:50:52.749Z,9.94
2023-04-11T06:53:19.411Z,10.06
2023-04-11T06:55:49.956Z,10.08
2023-04-11T06:58:17.239Z,10.16
2023-04-11T07:00:44.255Z,10.17
2023-04-11T07:03:11.314Z,10.16
2023-04-11T07:08:32.511Z,10.21
2023-04-11T07:10:59.822Z,10.30
2023-04-11T07:13:26.745Z,10.35
2023-04-11T07:15:53.387Z,10.41
2023-04-11T07:18:19.917Z,10.39
2023-04-11T07:23:42.072Z,10.59
2023-04-11T07:26:12.100Z,10.58
2023-04-11T07:28:40.384Z,10.62
2023-04-11T07:31:12.341Z,10.74
2023-04-11T07:33:43.212Z,10.76
2023-04-11T07:36:17.952Z,10.74
2023-04-11T07:38:44.824Z,10.82
2023-04-11T07:41:11.720Z,10.87
2023-04-11T07:46:40.886Z,10.98
2023-04-11T07:49:07.981Z,11.02
2023-04-11T07:51:35.178Z,11.09
2023-04-11T07:54:01.894Z,11.12
2023-04-11T07:56:28.575Z,11.17
2023-04-11T07:58:55.078Z,11.35
2023-04-11T08:01:24.155Z,11.35
2023-04-11T08:03:55.989Z,11.40
2023-04-11T08:06:23.677Z,11.45
2023-04-11T08:08:51.283Z,11.45
2023-04-11T08:11:18.018Z,11.40
2023-04-11T08:13:45.314Z,11.46
2023-04-11T08:16:15.607Z,11.42
2023-04-11T08:18:42.857Z,11.50
2023-04-11T08:21:12.410Z,11.43
2023-04-11T08:23:40.013Z,11.57
2023-04-11T08:26:08.285Z,11.68
2023-04-11T08:28:36.034Z,11.88
2023-04-11T08:31:04.334Z,11.96
2023-04-11T08:33:31.685Z,11.99
2023-04-11T08:35:59.074Z,12.22
2023-04-11T08:38:29.953Z,12.33
2023-04-11T08:40:59.012Z,12.38
2023-04-11T08:43:25.885Z,12.36
2023-04-11T08:45:52.529Z,12.42
2023-04-11T08:48:21.934Z,12.43
2023-04-11T08:50:48.722Z,12.58
2023-04-11T08:53:18.923Z,12.49
2023-04-11T08:55:47.049Z,12.31
2023-04-11T08:58:14.077Z,12.23
2023-04-11T09:03:51.998Z,12.39
2023-04-11T09:06:18.741Z,12.49
2023-04-11T09:08:45.738Z,12.59
2023-04-11T09:11:51.880Z,12.73
2023-04-11T09:14:18.535Z,12.58
2023-04-11T09:16:57.159Z,12.72
2023-04-11T09:19:25.522Z,12.68
2023-04-11T09:21:54.033Z,12.80
2023-04-11T09:24:20.687Z,12.91
2023-04-11T09:26:47.500Z,12.88
2023-04-11T09:29:38.712Z,12.89
2023-04-11T09:32:05.776Z,12.80
2023-04-11T09:34:34.768Z,12.79
2023-04-11T09:37:02.313Z,12.98
2023-04-11T09:39:29.906Z,13.05
2023-04-11T09:41:57.550Z,13.12
2023-04-11T09:44:38.720Z,13.18
2023-04-11T09:47:05.667Z,13.12
2023-04-11T09:49:34.452Z,13.19
2023-04-11T09:52:02.171Z,13.21
2023-04-11T09:54:30.022Z,13.30
2023-04-11T09:56:57.196Z,13.48
2023-04-11T09:59:27.042Z,13.47
2023-04-11T10:01:53.883Z,13.57
2023-04-11T10:04:21.003Z,13.47
2023-04-11T10:07:17.327Z,13.40
2023-04-11T10:09:46.093Z,13.31
2023-04-11T10:12:12.734Z,13.30
2023-04-11T10:14:41.539Z,13.13
2023-04-11T10:17:22.985Z,13.00
2023-04-11T10:19:56.404Z,13.11
2023-04-11T10:22:41.939Z,13.05
2023-04-11T10:25:22.073Z,12.95
2023-04-11T10:28:01.003Z,12.96
2023-04-11T10:31:04.511Z,12.88
2023-04-11T10:33:32.278Z,12.68
2023-04-11T10:36:12.681Z,12.79
2023-04-11T10:38:44.643Z,12.74
2023-04-11T10:41:17.969Z,12.77
2023-04-11T10:43:45.581Z,12.72
2023-04-11T10:46:18.464Z,12.81
2023-04-11T10:49:08.854Z,12.84
2023-04-11T10:51:35.591Z,12.85
2023-04-11T10:54:02.940Z,12.82
2023-04-11T10:56:47.130Z,13.06
2023-04-11T10:59:34.475Z,13.19
2023-04-11T11:02:02.647Z,13.29
2023-04-11T11:04:37.487Z,13.32
2023-04-11T11:07:07.098Z,13.46
2023-04-11T11:09:35.212Z,13.51
2023-04-11T11:12:16.358Z,13.41
2023-04-11T11:14:45.727Z,13.52
2023-04-11T11:17:16.716Z,13.60
2023-04-11T11:19:45.159Z,13.69
2023-04-11T11:22:16.191Z,13.80
2023-04-11T11:24:42.956Z,13.70
2023-04-11T11:27:22.831Z,13.81
2023-04-11T11:29:50.336Z,13.87
2023-04-11T11:32:29.824Z,13.75
2023-04-11T11:34:58.047Z,13.76
2023-04-11T11:37:24.947Z,13.64
2023-04-11T11:39:52.435Z,13.53
2023-04-11T11:42:19.505Z,13.50
2023-04-11T11:44:46.392Z,13.51
2023-04-11T11:47:16.882Z,13.61
2023-04-11T11:49:54.283Z,13.65
2023-04-11T11:52:33.881Z,13.68
2023-04-11T11:55:02.201Z,13.81
2023-04-11T11:57:29.092Z,13.78
2023-04-11T11:59:57.281Z,13.81
2023-04-11T12:02:28.765Z,13.80
2023-04-11T12:05:00.319Z,13.89
2023-04-11T12:07:32.585Z,13.90
2023-04-11T12:10:01.354Z,13.85
2023-04-11T12:12:38.431Z,13.87
2023-04-11T12:15:19.144Z,13.96
2023-04-11T12:17:50.464Z,13.89
2023-04-11T12:20:17.607Z,14.01
2023-04-11T12:22:44.300Z,14.01
2023-04-11T12:25:12.831Z,14.10
2023-04-11T12:27:43.639Z,14.33
2023-04-11T12:30:11.595Z,14.40
2023-04-11T12:32:38.905Z,14.50
2023-04-11T12:35:06.467Z,14.45
2023-04-11T12:37:34.517Z,14.49
2023-04-11T12:40:01.870Z,14.57
2023-04-11T12:42:28.672Z,14.72
2023-04-11T12:44:55.771Z,14.73
2023-04-11T12:47:22.523Z,14.73
2023-04-11T12:49:49.420Z,14.85
2023-04-11T12:52:16.515Z,14.94
2023-04-11T12:54:45.892Z,14.81
2023-04-11T12:57:13.633Z,14.80
2023-04-11T12:59:40.552Z,14.89
2023-04-11T13:02:07.844Z,14.83
2023-04-11T13:04:34.695Z,14.78
2023-04-11T13:07:02.032Z,14.73
2023-04-11T13:09:31.999Z,14.82
2023-04-11T13:11:59.309Z,14.96
2023-04-11T13:14:25.986Z,15.07
2023-04-11T13:16:52.656Z,14.94
2023-04-11T13:19:19.513Z,14.97
2023-04-11T13:21:46.231Z,15.06
2023-04-11T13:24:12.768Z,14.91
2023-04-11T13:26:39.523Z,14.89
2023-04-11T13:29:07.508Z,14.88
2023-04-11T13:31:34.136Z,14.81
2023-04-11T13:34:01.713Z,14.88
2023-04-11T13:36:28.824Z,15.01
2023-04-11T13:38:57.377Z,15.21
2023-04-11T13:41:31.599Z,15.04
2023-04-11T13:43:58.202Z,15.05
2023-04-11T13:46:24.807Z,15.15
2023-04-11T13:48:51.879Z,15.05
2023-04-11T13:51:19.286Z,15.00
2023-04-11T13:53:46.042Z,15.04
2023-04-11T13:56:17.754Z,14.87
2023-04-11T13:58:44.486Z,15.04
2023-04-11T14:01:11.809Z,14.95
2023-04-11T14:03:38.781Z,14.87
2023-04-11T14:06:05.803Z,14.90
2023-04-11T14:08:32.405Z,14.92
2023-04-11T14:11:31.669Z,14.89
2023-04-11T14:13:58.487Z,15.02
2023-04-11T14:16:25.813Z,15.02
2023-04-11T14:18:52.816Z,15.02
2023-04-11T14:21:19.819Z,15.06
2023-04-11T14:23:46.814Z,15.03
2023-04-11T14:26:13.560Z,15.11
2023-04-11T14:28:40.356Z,15.06
2023-04-11T14:31:07.240Z,15.13
2023-04-11T14:33:34.078Z,15.19
2023-04-11T14:36:01.401Z,15.20
2023-04-11T14:38:27.938Z,15.13
2023-04-11T14:40:54.685Z,15.10
2023-04-11T14:43:21.271Z,15.11
2023-04-11T14:45:48.008Z,15.16
2023-04-11T14:48:14.551Z,15.16
2023-04-11T14:50:41.067Z,15.18
2023-04-11T14:53:07.626Z,15.21
2023-04-11T14:55:34.554Z,15.33
2023-04-11T14:58:01.353Z,15.36
2023-04-11T15:00:28.257Z,15.40
2023-04-11T15:02:56.728Z,15.51
2023-04-11T15:05:24.232Z,15.41
2023-04-11T15:07:52.567Z,15.37
2023-04-11T15:10:21.610Z,15.41
2023-04-11T15:12:48.627Z,15.50
2023-04-11T15:15:16.113Z,15.50
2023-04-11T15:17:46.681Z,15.51
2023-04-11T15:20:17.463Z,15.53
2023-04-11T15:22:47.898Z,15.44
2023-04-11T15:25:16.275Z,15.42
2023-04-11T15:27:43.342Z,15.36
2023-04-11T15:30:11.740Z,15.44
2023-04-11T15:32:45.371Z,15.53
2023-04-11T15:35:12.429Z,15.43
2023-04-11T15:37:39.249Z,15.38
2023-04-11T15:40:06.617Z,15.30
2023-04-11T15:42:35.443Z,15.24
2023-04-11T15:45:02.523Z,15.34
2023-04-11T15:47:29.390Z,15.36
2023-04-11T15:49:56.505Z,15.36
2023-04-11T15:52:23.471Z,15.33
2023-04-11T15:54:50.601Z,15.36
2023-04-11T15:57:18.660Z,15.25
2023-04-11T15:59:45.795Z,15.20
2023-04-11T16:02:15.325Z,15.24
2023-04-11T16:04:47.006Z,15.27
2023-04-11T16:07:18.644Z,15.30
2023-04-11T16:09:45.378Z,15.38
2023-04-11T16:12:12.226Z,15.40
2023-04-11T16:14:38.825Z,15.30
2023-04-11T16:17:05.782Z,15.27
2023-04-11T16:19:32.637Z,15.14
2023-04-11T16:21:59.254Z,15.14
2023-04-11T16:24:28.218Z,15.14
2023-04-11T16:26:55.009Z,15.13
2023-04-11T16:29:21.536Z,15.08
2023-04-11T16:31:48.331Z,15.05
2023-04-11T16:34:15.040Z,14.99
2023-04-11T16:36:41.829Z,14.94
2023-04-11T16:39:09.297Z,14.95
2023-04-11T16:44:32.491Z,14.89
2023-04-11T16:46:59.609Z,14.90
2023-04-11T16:49:26.209Z,14.92
2023-04-11T16:51:52.946Z,14.91
2023-04-11T16:54:19.689Z,14.88
2023-04-11T16:56:47.427Z,14.93
2023-04-11T16:59:14.568Z,14.81
2023-04-11T17:01:41.977Z,14.76
2023-04-11T17:04:09.712Z,14.72
2023-04-11T17:06:37.110Z,14.72
2023-04-11T17:09:05.494Z,14.78
2023-04-11T17:11:32.560Z,14.75
2023-04-11T17:14:04.664Z,14.75
2023-04-11T17:16:31.467Z,14.70
2023-04-11T17:18:58.429Z,14.65
2023-04-11T17:21:26.124Z,14.63
2023-04-11T17:23:52.936Z,14.61
2023-04-11T17:26:20.248Z,14.56
2023-04-11T17:28:47.009Z,14.58
2023-04-11T17:31:15.186Z,14.53
2023-04-11T17:33:43.996Z,14.56
2023-04-11T17:36:14.233Z,14.59
2023-04-11T17:38:43.826Z,14.60
2023-04-11T17:41:15.011Z,14.58
2023-04-11T17:43:43.377Z,14.52
2023-04-11T17:46:10.297Z,14.49
2023-04-11T17:48:37.241Z,14.49
2023-04-11T17:51:05.622Z,14.48
2023-04-11T17:53:33.080Z,14.50
2023-04-11T17:56:04.734Z,14.51
2023-04-11T17:58:31.854Z,14.55
2023-04-11T18:00:58.517Z,14.52
2023-04-11T18:03:25.896Z,14.50
2023-04-11T18:05:54.415Z,14.50
2023-04-11T18:08:28.633Z,14.50
2023-04-11T18:11:00.415Z,14.46
2023-04-11T18:13:27.650Z,14.44
2023-04-11T18:15:56.120Z,14.42
2023-04-11T18:18:22.799Z,14.42
2023-04-11T18:20:49.480Z,14.39
2023-04-11T18:23:16.129Z,14.39
2023-04-11T18:25:42.626Z,14.36
2023-04-11T18:28:09.400Z,14.37
2023-04-11T18:30:36.411Z,14.37
2023-04-11T18:33:04.534Z,14.38
2023-04-11T18:35:31.700Z,14.34
2023-04-11T18:37:58.315Z,14.34
2023-04-11T18:40:25.816Z,14.31
2023-04-11T18:42:55.012Z,14.28
2023-04-11T18:45:23.137Z,14.27
2023-04-11T18:47:50.122Z,14.26
2023-04-11T18:50:18.628Z,14.25
2023-04-11T18:52:47.547Z,14.27
2023-04-11T18:55:16.238Z,14.25
2023-04-11T18:57:47.442Z,14.25
2023-04-11T19:00:18.569Z,14.24
2023-04-11T19:02:47.068Z,14.22
2023-04-11T19:05:15.786Z,14.22
2023-04-11T19:07:43.176Z,14.18
2023-04-11T19:10:11.485Z,14.14
2023-04-11T19:12:38.517Z,14.10
2023-04-11T19:15:08.341Z,14.11
2023-04-11T19:17:36.639Z,14.11
2023-04-11T19:20:07.084Z,14.11
2023-04-11T19:22:36.023Z,14.09
2023-04-11T19:25:02.838Z,14.10
2023-04-11T19:27:29.932Z,14.09
2023-04-11T19:29:57.096Z,14.06
2023-04-11T19:32:23.748Z,14.08
2023-04-11T19:34:50.989Z,14.09
2023-04-11T19:37:19.595Z,14.06
2023-04-11T19:39:46.223Z,14.02
2023-04-11T19:42:12.953Z,14.01
2023-04-11T19:44:40.028Z,14.01
2023-04-11T19:47:06.659Z,13.94
2023-04-11T19:49:33.109Z,13.94
2023-04-11T19:51:59.732Z,13.94
2023-04-11T19:54:26.520Z,13.93
2023-04-11T19:56:53.500Z,13.91
2023-04-11T19:59:20.328Z,13.87
2023-04-11T20:01:47.070Z,13.84
2023-04-11T20:04:16.323Z,13.80
2023-04-11T20:06:44.498Z,13.76
2023-04-11T20:09:11.931Z,13.69
2023-04-11T20:11:43.252Z,13.55
2023-04-11T20:14:09.751Z,13.48
2023-04-11T20:16:36.575Z,13.43
2023-04-11T20:19:03.408Z,13.36
2023-04-11T20:21:30.070Z,13.28
2023-04-11T20:23:58.424Z,13.19
2023-04-11T20:26:25.269Z,13.09
2023-04-11T20:28:53.089Z,13.00
2023-04-11T20:31:19.786Z,12.89
2023-04-11T20:33:46.830Z,12.75
2023-04-11T20:36:15.681Z,12.64
2023-04-11T20:38:42.708Z,12.56
2023-04-11T20:41:09.680Z,12.46
2023-04-11T20:43:41.990Z,12.44
2023-04-11T20:46:09.113Z,12.43
2023-04-11T20:48:36.161Z,12.38
2023-04-11T20:51:02.809Z,12.32
2023-04-11T20:53:29.434Z,12.28
2023-04-11T20:55:56.790Z,12.24
2023-04-11T20:58:23.471Z,12.20
2023-04-11T21:00:50.069Z,12.14
2023-04-11T21:03:16.939Z,12.11
2023-04-11T21:05:44.321Z,12.08
2023-04-11T21:08:14.347Z,12.07
2023-04-11T21:13:34.973Z,12.00
2023-04-11T21:16:01.832Z,11.95
2023-04-11T21:18:28.970Z,11.92
2023-04-11T21:20:55.655Z,11.90
2023-04-11T21:23:22.292Z,11.89
2023-04-11T21:25:48.931Z,11.85
2023-04-11T21:28:15.551Z,11.82
2023-04-11T21:30:42.418Z,11.77
2023-04-11T21:33:10.375Z,11.74
2023-04-11T21:35:37.138Z,11.73
2023-04-11T21:38:03.936Z,11.71
2023-04-11T21:40:31.063Z,11.67
2023-04-11T21:42:57.668Z,11.62
2023-04-11T21:45:24.350Z,11.59
2023-04-11T21:47:51.408Z,11.54
2023-04-11T21:50:18.550Z,11.52
2023-04-11T21:52:46.363Z,11.53
2023-04-11T21:55:14.572Z,11.53
2023-04-11T21:57:41.839Z,11.53
2023-04-11T22:00:11.155Z,11.52
2023-04-11T22:02:38.895Z,11.49
2023-04-11T22:05:08.789Z,11.47
2023-04-11T22:07:46.353Z,11.46
2023-04-11T22:10:14.195Z,11.43
2023-04-11T22:12:41.864Z,11.41
2023-04-11T22:15:11.098Z,11.40
2023-04-11T22:17:38.560Z,11.37
2023-04-11T22:20:07.037Z,11.33
2023-04-11T22:22:35.265Z,11.31
2023-04-11T22:25:01.975Z,11.27
2023-04-11T22:27:29.548Z,11.21
2023-04-11T22:29:56.289Z,11.16
2023-04-11T22:32:23.854Z,11.14
2023-04-11T22:34:50.876Z,11.12
2023-04-11T22:37:17.481Z,11.07
2023-04-11T22:39:44.064Z,11.07
2023-04-11T22:42:11.856Z,11.06
2023-04-11T22:44:38.515Z,11.05
2023-04-11T22:47:08.600Z,11.03
2023-04-11T22:49:40.620Z,10.98
2023-04-11T22:52:14.476Z,10.94
2023-04-11T22:54:42.662Z,10.91
2023-04-11T22:57:10.093Z,10.84
2023-04-11T22:59:36.915Z,10.74
2023-04-11T23:02:03.788Z,10.73
2023-04-11T23:04:31.779Z,10.71
2023-04-11T23:06:58.503Z,10.69
2023-04-11T23:09:25.299Z,10.66
2023-04-11T23:11:52.294Z,10.57
2023-04-11T23:14:21.367Z,10.49
2023-04-11T23:16:48.388Z,10.52
2023-04-11T23:19:15.063Z,10.52
2023-04-11T23:21:42.243Z,10.51
2023-04-11T23:24:09.992Z,10.49
2023-04-11T23:26:37.316Z,10.47
2023-04-11T23:29:04.359Z,10.47
2023-04-11T23:31:31.750Z,10.46
2023-04-11T23:33:58.510Z,10.44
2023-04-11T23:36:27.526Z,10.42
2023-04-11T23:38:54.291Z,10.39
2023-04-11T23:41:20.880Z,10.36
2023-04-11T23:43:47.366Z,10.34
2023-04-11T23:46:21.564Z,10.28
2023-04-11T23:48:48.107Z,10.22
2023-04-11T23:51:15.505Z,10.20
2023-04-11T23:53:42.943Z,10.20
2023-04-11T23:56:09.683Z,10.18
2023-04-11T23:58:36.485Z,10.17
